Time;durP1;ratioP1;P1;durP2;ratioP2;P2;SDS_P1;SDS_P2;PMS_P1;PMS_P2;Temp;Humidity;BMP_temperature;BMP_pressure;BME280_temperature;BME280_humidity;BME280_pressure;Samples;Min_cycle;Max_cycle;Signal;HPM_P1;HPM_P2
2022/10/03 00:01:42;;;;;;;3.33;2.55;;;;;;;7.55;100.00;97975.81;1712424;82;21467;-72
2022/10/03 00:04:45;;;;;;;4.87;2.98;;;;;;;7.56;100.00;97978.77;1730065;83;21442;-72
2022/10/03 00:07:47;;;;;;;4.67;2.58;;;;;;;7.57;100.00;97978.20;1729707;83;20916;-72
2022/10/03 00:10:53;;;;;;;3.60;2.83;;;;;;;7.50;100.00;97971.14;1729712;82;21582;-73
2022/10/03 00:13:45;;;;;;;4.53;2.35;;;;;;;7.43;100.00;97973.04;1729259;83;21079;-73
2022/10/03 00:16:43;;;;;;;5.78;3.05;;;;;;;7.36;100.00;97974.70;1730041;83;20881;-73
2022/10/03 00:19:46;;;;;;;3.27;2.45;;;;;;;7.29;100.00;97965.67;1729662;82;20940;-73
2022/10/03 00:22:45;;;;;;;3.17;2.17;;;;;;;7.25;100.00;97964.17;1730112;83;20940;-73
2022/10/03 00:25:47;;;;;;;3.45;3.02;;;;;;;7.24;100.00;97963.95;1729684;83;21316;-72
2022/10/03 00:28:51;;;;;;;4.03;3.12;;;;;;;7.25;100.00;97949.16;1670664;82;21523;-73
2022/10/03 00:31:23;;;;;;;4.60;2.62;;;;;;;7.23;100.00;97933.69;1729580;83;20940;-72
2022/10/03 00:34:18;;;;;;;6.53;2.87;;;;;;;7.23;100.00;97947.90;1730684;82;20940;-72
2022/10/03 00:36:59;;;;;;;11.45;2.60;;;;;;;7.23;100.00;97939.14;1684287;82;21597;-72
2022/10/03 00:39:51;;;;;;;4.80;2.77;;;;;;;7.24;100.00;97921.64;1726680;82;21229;-73
2022/10/03 00:42:49;;;;;;;4.65;2.92;;;;;;;7.25;100.00;97938.25;1729739;83;20929;-72
2022/10/03 00:46:03;;;;;;;3.25;2.42;;;;;;;7.26;100.00;97935.75;1708096;83;20961;-73
2022/10/03 00:48:45;;;;;;;3.47;2.45;;;;;;;7.30;100.00;97935.88;1732438;82;20892;-72
2022/10/03 00:51:20;;;;;;;3.42;2.27;;;;;;;7.34;100.00;97927.83;1730872;82;21887;-72
2022/10/03 00:54:11;;;;;;;8.05;2.55;;;;;;;7.36;100.00;97926.93;1729837;82;21432;-73
2022/10/03 00:57:09;;;;;;;2.72;1.98;;;;;;;7.38;100.00;97920.57;1729843;82;20941;-72
2022/10/03 01:00:18;;;;;;;2.62;2.00;;;;;;;7.39;100.00;97914.78;1729654;82;20969;-72
2022/10/03 01:03:15;;;;;;;4.95;2.08;;;;;;;7.40;100.00;97902.72;1729692;82;20989;-72
2022/10/03 01:06:15;;;;;;;2.37;1.90;;;;;;;7.44;100.00;97905.59;1730115;82;20932;-71
2022/10/03 01:08:54;;;;;;;2.17;1.65;;;;;;;7.48;100.00;97907.88;1728915;83;21167;-71
2022/10/03 01:11:41;;;;;;;1.85;1.47;;;;;;;7.50;100.00;97900.16;1729644;82;20893;-72
2022/10/03 01:14:30;;;;;;;2.40;1.67;;;;;;;7.54;100.00;97903.78;1729760;83;20920;-72
2022/10/03 01:17:05;;;;;;;1.37;1.10;;;;;;;7.57;100.00;97903.91;1729650;83;20937;-72
2022/10/03 01:19:59;;;;;;;1.98;1.67;;;;;;;7.60;100.00;97900.51;1698698;83;20869;-72
2022/10/03 01:22:54;;;;;;;1.80;1.35;;;;;;;7.63;100.00;97903.93;1729417;82;21096;-72
2022/10/03 01:25:38;;;;;;;2.08;1.52;;;;;;;7.67;100.00;97900.53;1729967;83;20916;-72
2022/10/03 01:31:29;;;;;;;3.42;1.82;;;;;;;7.70;100.00;97887.00;1726007;82;20916;-71
2022/10/03 01:34:04;;;;;;;3.17;1.90;;;;;;;7.70;100.00;97883.47;1729731;83;20933;-72
2022/10/03 01:36:45;;;;;;;2.83;1.85;;;;;;;7.71;100.00;97880.97;1729870;82;21101;-71
2022/10/03 01:39:32;;;;;;;3.60;1.77;;;;;;;7.70;100.00;97882.90;1729775;83;21484;-71
2022/10/03 01:42:14;;;;;;;3.30;1.95;;;;;;;7.71;100.00;97883.70;1728883;82;21420;-71
2022/10/03 01:45:02;;;;;;;2.50;2.00;;;;;;;7.70;100.00;97876.64;1728849;82;21468;-72
2022/10/03 01:47:50;;;;;;;3.45;1.72;;;;;;;7.71;100.00;97870.05;1729283;82;20993;-72
2022/10/03 01:50:35;;;;;;;2.52;1.80;;;;;;;7.72;100.00;97887.46;1729555;82;21817;-72
2022/10/03 01:53:26;;;;;;;2.62;1.80;;;;;;;7.72;100.00;97868.34;1708530;82;21032;-71
2022/10/03 01:56:19;;;;;;;3.58;2.00;;;;;;;7.72;100.00;97868.34;1729707;83;20980;-71
2022/10/03 01:59:13;;;;;;;2.12;1.60;;;;;;;7.72;100.00;97882.00;1729557;82;20927;-72
2022/10/03 02:02:02;;;;;;;1.42;1.32;;;;;;;7.76;100.00;97868.46;1729313;82;20877;-71
2022/10/03 02:04:56;;;;;;;1.10;0.90;;;;;;;7.77;100.00;97879.05;1729901;82;21173;-72
2022/10/03 02:07:50;;;;;;;2.10;1.40;;;;;;;7.79;100.00;97875.42;1729581;82;21032;-72
2022/10/03 02:10:25;;;;;;;1.72;1.07;;;;;;;7.80;100.00;97890.67;1690238;84;21495;-71
2022/10/03 02:13:22;;;;;;;1.87;1.00;;;;;;;7.84;100.00;97883.39;1683433;84;20957;-71
2022/10/03 02:16:19;;;;;;;1.67;1.12;;;;;;;7.85;100.00;97879.53;1694491;84;20881;-72
2022/10/03 02:19:20;;;;;;;2.25;1.20;;;;;;;7.83;100.00;97870.88;1692141;84;21239;-72
2022/10/03 02:21:52;;;;;;;2.33;1.20;;;;;;;7.83;100.00;97876.91;1702137;84;21502;-72
2022/10/03 02:24:25;;;;;;;;;;;;;;;7.82;100.00;97881.57;1694685;84;20889;-72
2022/10/03 02:27:35;;;;;;;1.20;1.10;;;;;;;7.82;100.00;97872.02;1692577;84;20091;-72
2022/10/03 02:30:37;;;;;;;3.52;1.07;;;;;;;7.80;100.00;97875.65;1676703;85;20968;-72
2022/10/03 02:33:32;;;;;;;2.72;0.98;;;;;;;7.80;100.00;97877.02;1656618;86;22003;-72
2022/10/03 02:36:26;;;;;;;0.98;0.80;;;;;;;7.80;100.00;97872.91;1666512;86;21440;-72
2022/10/03 02:39:45;;;;;;;1.47;0.80;;;;;;;7.81;100.00;97877.24;1665498;85;21479;-72
2022/10/03 02:42:39;;;;;;;1.80;1.10;;;;;;;7.84;100.00;97866.21;1664252;86;20902;-71
2022/10/03 02:45:29;;;;;;;2.35;1.20;;;;;;;7.85;100.00;97868.60;1672404;85;20940;-72
2022/10/03 02:48:33;;;;;;;3.02;1.22;;;;;;;7.89;100.00;97866.79;1664326;86;21220;-72
2022/10/03 02:51:14;;;;;;;2.65;1.10;;;;;;;7.97;100.00;97877.96;1673664;85;20924;-72
2022/10/03 02:54:30;;;;;;;2.58;1.20;;;;;;;8.02;100.00;97857.25;1669173;85;20984;-72
2022/10/03 02:57:18;;;;;;;5.95;1.10;;;;;;;8.05;100.00;97866.14;1664488;86;20936;-72
2022/10/03 03:00:12;;;;;;;2.80;1.35;;;;;;;8.08;100.00;97850.42;1664300;86;21527;-73
2022/10/03 03:03:04;;;;;;;4.97;1.32;;;;;;;8.10;100.00;97853.02;1664250;86;21179;-73
2022/10/03 03:06:12;;;;;;;3.05;1.70;;;;;;;8.20;100.00;97863.50;1664342;86;20993;-72
2022/10/03 03:09:16;;;;;;;4.40;1.40;;;;;;;8.25;100.00;97863.28;1666278;85;20909;-83
2022/10/03 03:12:18;;;;;;;4.33;1.82;;;;;;;8.27;100.00;97856.91;1669369;86;21577;-86
2022/10/03 03:15:36;;;;;;;5.05;2.20;;;;;;;8.33;100.00;97862.98;1669500;86;20937;-87
2022/10/03 03:18:27;;;;;;;8.45;2.40;;;;;;;8.38;100.00;97851.81;1669433;86;21201;-78
2022/10/03 03:21:05;;;;;;;6.42;2.52;;;;;;;8.43;100.00;97855.69;1651911;86;20936;-70
2022/10/03 03:23:56;;;;;;;7.08;2.33;;;;;;;8.49;100.00;97863.09;1669456;86;21451;-71
2022/10/03 03:26:44;;;;;;;3.70;2.50;;;;;;;8.53;100.00;97852.48;1669482;86;20912;-70
2022/10/03 03:29:19;;;;;;;5.22;2.60;;;;;;;8.57;100.00;97854.77;1642084;85;21558;-70
2022/10/03 03:32:30;;;;;;;12.20;3.10;;;;;;;8.65;100.00;97845.41;1669457;84;21084;-70
2022/10/03 03:35:27;;;;;;;7.80;2.72;;;;;;;8.70;100.00;97845.95;1668703;86;20979;-71
2022/10/03 03:38:17;;;;;;;8.05;2.55;;;;;;;8.77;100.00;97842.63;1669160;86;21023;-74
2022/10/03 03:40:56;;;;;;;5.97;2.72;;;;;;;8.81;100.00;97840.80;1669143;86;20991;-75
2022/10/03 03:43:43;;;;;;;7.70;2.33;;;;;;;8.83;100.00;97831.68;1669319;86;21475;-76
2022/10/03 03:46:28;;;;;;;5.62;2.60;;;;;;;8.85;100.00;97838.40;1668230;86;21125;-73
2022/10/03 03:49:25;;;;;;;5.83;2.75;;;;;;;8.87;100.00;97836.69;1669070;85;20905;-74
2022/10/03 03:52:28;;;;;;;4.42;2.33;;;;;;;8.88;100.00;97841.02;1668688;85;20996;-74
2022/10/03 03:55:23;;;;;;;6.58;2.65;;;;;;;8.90;100.00;97829.16;1669372;85;21479;-74
2022/10/03 03:58:14;;;;;;;10.03;3.00;;;;;;;8.90;100.00;97832.69;1669111;86;20987;-73
2022/10/03 04:01:10;;;;;;;17.98;3.33;;;;;;;8.99;100.00;97836.66;1668451;86;21164;-85
2022/10/03 04:03:50;;;;;;;5.30;2.37;;;;;;;9.02;100.00;97837.91;1667221;86;20926;-79
2022/10/03 04:06:55;;;;;;;7.78;2.55;;;;;;;9.01;100.00;97831.63;1667866;86;21487;-79
2022/10/03 04:09:26;;;;;;;5.33;2.20;;;;;;;9.01;100.00;97833.00;1667913;85;20964;-76
2022/10/03 04:12:18;;;;;;;4.75;2.40;;;;;;;9.03;100.00;97838.92;1671797;84;21488;-84
2022/10/03 04:15:05;;;;;;;5.15;2.52;;;;;;;9.04;100.00;97835.62;1671125;85;21259;-77
2022/10/03 04:21:13;;;;;;;5.50;2.70;;;;;;;9.04;100.00;97839.16;1671526;84;20866;-84
2022/10/03 04:24:02;;;;;;;7.75;2.95;;;;;;;9.06;100.00;97836.07;1671012;85;21420;-81
2022/10/03 04:27:08;;;;;;;5.20;2.62;;;;;;;9.07;100.00;97841.20;1671227;84;21480;-87
2022/10/03 04:29:50;;;;;;;10.75;3.02;;;;;;;9.08;100.00;97845.53;1671437;85;20979;-88
2022/10/03 04:32:25;;;;;;;4.75;2.62;;;;;;;9.09;100.00;97848.48;1671362;84;20893;-81
2022/10/03 04:35:20;;;;;;;7.28;2.58;;;;;;;9.11;100.00;97844.03;1671988;85;21412;-83
2022/10/03 04:38:22;;;;;;;5.47;2.42;;;;;;;9.11;100.00;97847.57;1671685;85;21011;-90
2022/10/03 04:41:18;;;;;;;7.85;2.62;;;;;;;9.13;100.00;97847.22;1673314;85;20890;-74
2022/10/03 04:44:15;;;;;;;8.80;3.42;;;;;;;9.13;100.00;97848.02;1673091;83;21089;-77
2022/10/03 04:46:53;;;;;;;6.37;2.77;;;;;;;9.14;100.00;97852.35;1672860;85;21432;-71
2022/10/03 04:49:34;;;;;;;6.40;2.90;;;;;;;9.15;100.00;97858.63;1674423;84;20949;-87
2022/10/03 04:52:38;;;;;;;5.42;2.50;;;;;;;9.15;100.00;97852.58;1673066;85;21035;-74
2022/10/03 04:55:27;;;;;;;7.85;2.67;;;;;;;9.15;100.00;97859.42;1625869;86;20976;-74
2022/10/03 04:58:08;;;;;;;7.95;2.83;;;;;;;9.18;100.00;97866.94;1626632;87;21139;-76
2022/10/03 05:01:00;;;;;;;5.30;2.50;;;;;;;9.21;100.00;97855.87;1658013;85;20951;-77
2022/10/03 05:03:48;;;;;;;6.75;2.40;;;;;;;9.23;100.00;97869.44;1673491;84;20889;-78
2022/10/03 05:06:32;;;;;;;6.58;2.95;;;;;;;9.24;100.00;97860.65;1673010;85;20984;-87
2022/10/03 05:09:21;;;;;;;10.75;2.58;;;;;;;9.24;100.00;97861.41;1672327;85;20975;-82
2022/10/03 05:12:06;;;;;;;7.12;2.65;;;;;;;9.27;100.00;97863.46;1670610;84;21202;-77
2022/10/03 05:15:28;;;;;;;5.42;2.40;;;;;;;9.30;100.00;97868.02;1682782;85;20931;-77
2022/10/03 05:18:24;;;;;;;7.67;2.17;;;;;;;9.33;100.00;97864.02;1679927;85;20999;-79
2022/10/03 05:21:25;;;;;;;5.47;2.33;;;;;;;9.37;100.00;97855.90;1674348;85;20900;-73
2022/10/03 05:24:05;;;;;;;7.10;2.37;;;;;;;9.42;100.00;97865.23;1652237;84;21388;-82
2022/10/03 05:26:41;;;;;;;9.33;2.02;;;;;;;9.49;100.00;97863.49;1677803;85;21161;-80
2022/10/03 05:29:41;;;;;;;8.78;2.30;;;;;;;9.59;100.00;97880.00;1676545;85;20965;-94
2022/10/03 05:32:23;;;;;;;9.48;2.15;;;;;;;9.69;100.00;97869.91;1675793;85;20949;-84
2022/10/03 05:35:24;;;;;;;17.48;3.35;;;;;;;9.81;100.00;97872.59;1675830;85;21003;-81
2022/10/03 05:38:24;;;;;;;4.45;2.40;;;;;;;9.93;100.00;97875.23;1675125;85;20853;-81
2022/10/03 05:41:17;;;;;;;8.40;2.08;;;;;;;10.03;100.00;97875.86;1646335;86;21433;-82
2022/10/03 05:44:02;;;;;;;7.90;2.52;;;;;;;10.09;100.00;97859.37;1670153;85;20984;-76
2022/10/03 05:46:56;;;;;;;4.95;2.27;;;;;;;10.15;100.00;97877.95;1674596;85;21443;-80
2022/10/03 05:49:52;;;;;;;6.22;2.22;;;;;;;10.17;100.00;97880.34;1674505;85;20952;-84
2022/10/03 05:52:45;;;;;;;5.50;2.17;;;;;;;10.14;100.00;97873.63;1671369;85;20889;-80
2022/10/03 05:55:23;;;;;;;10.75;2.10;;;;;;;10.12;100.00;97888.83;1668692;84;21070;-86
2022/10/03 05:58:21;;;;;;;6.22;2.10;;;;;;;10.09;100.00;97886.80;1676967;85;20865;-83
2022/10/03 06:01:18;;;;;;;7.90;2.40;;;;;;;10.03;100.00;97889.00;1675358;85;20972;-80
2022/10/03 06:04:14;;;;;;;9.75;2.90;;;;;;;9.98;100.00;97889.83;1674750;85;20989;-79
2022/10/03 06:07:03;;;;;;;7.97;2.17;;;;;;;9.88;100.00;97884.28;1676128;85;20972;-77
2022/10/03 06:09:39;;;;;;;2.85;1.67;;;;;;;9.85;100.00;97883.05;1676262;85;21876;-82
2022/10/03 06:12:45;;;;;;;7.83;2.42;;;;;;;9.86;100.00;97892.86;1670527;85;20944;-87
2022/10/03 06:15:37;;;;;;;9.18;2.20;;;;;;;9.89;100.00;97897.64;1670548;86;20900;-89
2022/10/03 06:18:22;;;;;;;5.25;1.80;;;;;;;9.95;100.00;97896.81;1660333;85;21023;-87
2022/10/03 06:21:13;;;;;;;8.28;1.90;;;;;;;9.98;100.00;97893.37;1653400;87;20939;-86
2022/10/03 06:24:26;;;;;;;2.98;1.70;;;;;;;10.02;100.00;97899.73;1653303;87;21718;-88
2022/10/03 06:27:07;;;;;;;7.03;1.98;;;;;;;10.06;100.00;97892.98;1652613;87;20924;-79
2022/10/03 06:30:10;;;;;;;5.78;2.02;;;;;;;10.07;100.00;97889.09;1653161;87;20983;-82
2022/10/03 06:33:15;;;;;;;9.70;1.90;;;;;;;10.05;100.00;97903.16;1657087;86;20992;-77
2022/10/03 06:35:55;;;;;;;4.17;1.50;;;;;;;10.05;100.00;97900.98;1659009;86;20983;-77
2022/10/03 06:39:19;;;;;;;7.22;1.80;;;;;;;10.06;100.00;97899.84;1648956;85;20976;-75
2022/10/03 06:42:33;;;;;;;7.90;2.30;;;;;;;10.10;100.00;97914.44;1667848;86;21008;-75
2022/10/03 06:45:25;;;;;;;4.97;1.72;;;;;;;10.13;100.00;97914.53;1668085;86;21022;-76
2022/10/03 06:48:28;;;;;;;4.90;2.10;;;;;;;10.15;100.00;97920.45;1668795;85;20983;-75
2022/10/03 06:51:51;;;;;;;5.10;2.80;;;;;;;10.19;100.00;97922.75;1669627;85;21035;-85
2022/10/03 06:54:38;;;;;;;7.65;2.45;;;;;;;10.21;100.00;97923.77;1670250;86;21519;-80
2022/10/03 06:57:20;;;;;;;4.33;1.77;;;;;;;10.19;100.00;97915.89;1669647;86;21511;-76
2022/10/03 06:59:50;;;;;;;;;;;;;;;10.19;100.00;97927.41;1671842;84;21484;-80
2022/10/03 07:02:37;;;;;;;4.97;2.22;;;;;;;10.21;100.00;97919.66;1669326;84;20116;-77
2022/10/03 07:05:56;;;;;;;4.17;1.70;;;;;;;10.25;100.00;97925.45;1666640;86;21027;-80
2022/10/03 07:09:00;;;;;;;6.83;2.33;;;;;;;10.33;100.00;97933.30;1669969;86;21169;-78
2022/10/03 07:11:55;;;;;;;9.85;2.50;;;;;;;10.48;100.00;97935.79;1672004;85;20948;-84
2022/10/03 07:14:48;;;;;;;9.78;2.22;;;;;;;10.64;100.00;97926.98;1674057;84;20864;-86
2022/10/03 07:17:27;;;;;;;10.53;2.70;;;;;;;10.79;100.00;97939.90;1676303;84;21071;-87
2022/10/03 07:20:18;;;;;;;8.18;2.80;;;;;;;10.98;100.00;97939.72;1674619;85;20964;-86
2022/10/03 07:23:26;;;;;;;4.42;2.52;;;;;;;11.10;100.00;97929.99;1673610;84;21074;-85
2022/10/03 07:26:19;;;;;;;6.62;3.58;;;;;;;11.20;100.00;97938.48;1669560;85;21432;-84
2022/10/03 07:29:02;;;;;;;9.05;3.55;;;;;;;11.30;100.00;97943.19;1656068;85;21018;-81
2022/10/03 07:32:22;;;;;;;5.42;1.98;;;;;;;11.35;100.00;97935.47;1665360;84;20960;-78
2022/10/03 07:39:05;;;;;;;14.68;2.25;;;;;;;11.42;98.90;97930.70;1665165;85;21997;-82
2022/10/03 07:42:12;;;;;;;4.53;2.08;;;;;;;11.48;99.42;97929.27;1671245;85;20964;-92
2022/10/03 07:44:58;;;;;;;6.25;2.20;;;;;;;11.55;98.35;97941.78;1673708;85;20901;-87
2022/10/03 07:48:01;;;;;;;6.83;2.85;;;;;;;11.60;96.13;97940.09;1676784;84;21610;-82
2022/10/03 07:50:44;;;;;;;4.47;2.35;;;;;;;11.64;96.79;97931.34;1673096;84;20996;-84
2022/10/03 07:53:42;;;;;;;7.37;2.35;;;;;;;11.71;95.49;97930.11;1674553;85;21974;-85
2022/10/03 07:56:50;;;;;;;6.97;3.20;;;;;;;11.74;95.75;97933.51;1673387;85;22110;-86
2022/10/03 07:59:44;;;;;;;9.68;3.40;;;;;;;11.73;93.53;97925.05;1673713;85;21525;-78
2022/10/03 08:02:33;;;;;;;8.25;3.20;;;;;;;11.64;92.68;97932.72;1674547;85;20947;-84
2022/10/03 08:05:24;;;;;;;11.55;4.62;;;;;;;11.57;92.96;97927.86;1674236;85;21500;-87
2022/10/03 08:08:02;;;;;;;8.13;4.10;;;;;;;11.59;93.85;97920.63;1658471;85;21030;-82
2022/10/03 08:11:25;;;;;;;9.63;2.70;;;;;;;11.65;93.52;97950.00;1670116;85;20944;-83
2022/10/03 08:14:26;;;;;;;9.65;3.33;;;;;;;11.71;93.14;97935.61;1660230;86;20936;-87
2022/10/03 08:17:24;;;;;;;4.20;2.55;;;;;;;11.76;92.31;97935.89;1674260;84;20897;-93
2022/10/03 08:20:18;;;;;;;6.30;3.10;;;;;;;11.77;91.82;97927.32;1674208;83;20901;-91
2022/10/03 08:23:13;;;;;;;7.03;1.92;;;;;;;11.77;90.88;97936.94;1655254;84;21190;-95
2022/10/03 08:25:57;;;;;;;3.65;2.37;;;;;;;11.88;91.31;97942.66;1680927;85;20909;-78
2022/10/03 08:28:39;;;;;;;7.15;2.17;;;;;;;12.11;89.68;97923.45;1640108;85;21452;-77
2022/10/03 08:31:40;;;;;;;5.03;2.65;;;;;;;12.37;87.91;97940.59;1674726;84;20952;-76
2022/10/03 08:34:24;;;;;;;14.05;4.42;;;;;;;12.69;86.72;97948.03;1675091;85;20941;-76
2022/10/03 08:37:44;;;;;;;10.72;6.22;;;;;;;12.98;85.32;97934.11;1620360;88;21244;-75
2022/10/03 08:40:36;;;;;;;9.43;3.92;;;;;;;13.23;84.67;97937.27;1676258;85;20897;-75
2022/10/03 08:43:27;;;;;;;5.20;2.22;;;;;;;13.41;81.49;97938.28;1674628;84;20900;-76
2022/10/03 08:46:08;;;;;;;5.97;2.90;;;;;;;13.34;79.87;97936.81;1661506;84;20948;-75
2022/10/03 08:48:55;;;;;;;5.90;2.20;;;;;;;13.15;80.33;97939.09;1634419;85;20932;-75
2022/10/03 08:52:06;;;;;;;3.80;2.12;;;;;;;12.99;81.89;97929.61;1675318;85;21076;-87
2022/10/03 08:54:48;;;;;;;6.15;2.25;;;;;;;12.90;81.80;97940.89;1675242;85;20896;-88
2022/10/03 08:57:53;;;;;;;3.85;1.72;;;;;;;12.85;80.57;97945.91;1675710;85;20968;-79
2022/10/03 09:00:23;;;;;;;6.83;2.67;;;;;;;12.85;80.47;97940.41;1675672;84;21012;-77
2022/10/03 09:03:32;;;;;;;5.70;1.80;;;;;;;12.84;81.23;97941.56;1674973;84;20988;-75
2022/10/03 09:06:47;;;;;;;5.50;2.50;;;;;;;12.80;80.38;97944.84;1674554;84;21204;-75
2022/10/03 09:09:46;;;;;;;8.63;1.47;;;;;;;12.79;82.44;97951.52;1678301;85;21042;-78
2022/10/03 09:12:41;;;;;;;5.50;1.75;;;;;;;12.77;80.95;97938.70;1658862;86;20932;-86
2022/10/03 09:15:36;;;;;;;8.85;2.70;;;;;;;12.61;80.77;97942.99;1665038;85;20964;-79
2022/10/03 09:18:21;;;;;;;6.35;1.40;;;;;;;12.44;81.30;97950.36;1668508;84;20945;-82
2022/10/03 09:21:29;;;;;;;5.75;2.00;;;;;;;12.27;81.75;97921.36;1670020;86;21268;-80
2022/10/03 09:24:34;;;;;;;3.33;1.47;;;;;;;12.28;83.50;97943.59;1644128;87;21003;-78
2022/10/03 09:27:29;;;;;;;4.90;2.00;;;;;;;12.35;83.45;97946.47;1648801;85;20928;-82
2022/10/03 09:30:20;;;;;;;5.67;3.10;;;;;;;12.35;82.52;97942.92;1649075;85;20983;-85
2022/10/03 09:33:11;;;;;;;6.75;2.45;;;;;;;12.60;84.93;97940.02;1648328;87;21059;-83
2022/10/03 09:35:53;;;;;;;10.20;5.00;;;;;;;12.80;80.72;97937.96;1643197;87;21273;-85
2022/10/03 09:38:54;;;;;;;9.40;3.62;;;;;;;12.77;80.48;97943.63;1643390;87;20940;-82
2022/10/03 09:41:58;;;;;;;3.15;1.27;;;;;;;12.70;79.44;97951.80;1643500;87;21024;-78
2022/10/03 09:44:45;;;;;;;5.60;1.25;;;;;;;12.57;79.19;97950.39;1643828;87;21633;-82
2022/10/03 09:47:54;;;;;;;4.40;1.42;;;;;;;12.49;79.63;97963.81;1643658;87;20916;-81
2022/10/03 09:51:01;;;;;;;3.37;1.30;;;;;;;12.52;80.23;97973.52;1643505;87;21868;-76
2022/10/03 09:53:53;;;;;;;1.82;1.20;;;;;;;12.47;81.51;97963.38;1643785;87;21062;-83
2022/10/03 09:57:01;;;;;;;3.90;1.67;;;;;;;12.43;83.76;97976.28;1643108;87;20908;-86
2022/10/03 10:00:02;;;;;;;4.97;1.67;;;;;;;12.78;86.61;97974.70;1668129;86;20907;-83
2022/10/03 10:02:58;;;;;;;8.08;2.47;;;;;;;13.28;82.72;97945.22;1668736;85;20936;-74
2022/10/03 10:06:08;;;;;;;5.30;2.77;;;;;;;13.28;82.39;97971.39;1605489;85;21900;-79
2022/10/03 10:09:13;;;;;;;6.00;1.65;;;;;;;13.08;82.76;97974.22;1671140;86;21564;-82
2022/10/03 10:12:15;;;;;;;11.10;3.45;;;;;;;12.96;83.20;97970.29;1671101;85;20937;-79
2022/10/03 10:15:13;;;;;;;9.43;3.47;;;;;;;13.14;83.63;97962.30;1677873;85;20916;-78
2022/10/03 10:18:03;;;;;;;24.00;3.72;;;;;;;13.40;82.59;97957.37;1673502;85;20922;-81
2022/10/03 10:20:59;;;;;;;3.22;1.95;;;;;;;13.71;81.93;97945.98;1667754;84;21849;-76
2022/10/03 10:23:43;;;;;;;6.75;2.33;;;;;;;13.88;79.81;97953.65;1667229;86;20957;-81
2022/10/03 10:26:35;;;;;;;4.55;1.70;;;;;;;13.83;77.76;97949.08;1641768;86;21005;-76
2022/10/03 10:29:26;;;;;;;13.30;3.42;;;;;;;13.60;75.78;97955.28;1642201;86;21024;-77
2022/10/03 10:32:16;;;;;;;9.88;2.98;;;;;;;13.33;80.21;97966.91;1617460;86;20984;-77
2022/10/03 10:35:38;;;;;;;4.30;2.37;;;;;;;12.99;84.04;97978.40;1668051;86;21926;-83
2022/10/03 10:38:52;;;;;;;4.40;2.67;;;;;;;12.66;87.66;97968.04;1671346;84;20964;-77
2022/10/03 10:42:00;;;;;;;3.45;1.45;;;;;;;12.46;88.74;97970.84;1669427;84;21507;-74
2022/10/03 10:45:07;;;;;;;8.45;2.30;;;;;;;12.55;89.65;97972.78;1670649;85;21083;-79
2022/10/03 10:48:21;;;;;;;8.08;1.62;;;;;;;12.69;89.28;97972.23;1669782;86;20946;-85
2022/10/03 10:51:29;;;;;;;5.40;1.35;;;;;;;12.77;88.84;97973.91;1653247;85;21142;-77
2022/10/03 10:54:15;;;;;;;5.08;1.45;;;;;;;13.01;88.03;97958.95;1668936;84;20975;-75
2022/10/03 10:57:31;;;;;;;9.60;1.20;;;;;;;13.13;82.13;97969.77;1669355;86;20899;-78
2022/10/03 11:00:28;;;;;;;5.10;1.20;;;;;;;13.10;80.74;97983.49;1669019;86;20984;-72
2022/10/03 11:03:29;;;;;;;4.87;1.50;;;;;;;13.01;79.75;97965.05;1668261;84;21048;-76
2022/10/03 11:06:44;;;;;;;9.95;3.45;;;;;;;12.98;79.03;97967.16;1669043;86;21523;-75
2022/10/03 11:10:04;;;;;;;9.58;3.42;;;;;;;12.96;79.77;97956.52;1669022;86;20975;-77
2022/10/03 11:12:51;;;;;;;5.10;1.75;;;;;;;13.02;77.98;97961.13;1668739;84;20945;-77
2022/10/03 11:15:39;;;;;;;6.35;2.87;;;;;;;13.02;77.90;97952.28;1669198;86;20905;-83
2022/10/03 11:18:54;;;;;;;4.60;1.85;;;;;;;13.02;78.15;97957.80;1669198;86;20952;-71
2022/10/03 11:21:58;;;;;;;3.50;1.70;;;;;;;12.93;77.76;97961.39;1669122;84;21116;-72
2022/10/03 11:24:56;;;;;;;9.13;1.90;;;;;;;12.78;78.49;97972.75;1668833;86;21035;-73
2022/10/03 11:27:49;;;;;;;5.97;2.22;;;;;;;12.70;80.28;97948.25;1669299;86;20953;-75
2022/10/03 11:30:44;;;;;;;5.20;1.50;;;;;;;12.72;81.80;97954.16;1668929;86;21515;-77
2022/10/03 11:33:28;;;;;;;4.65;1.30;;;;;;;12.94;81.58;97963.56;1669149;85;20908;-75
2022/10/03 11:36:13;;;;;;;7.67;3.17;;;;;;;13.21;79.92;97950.05;1668207;84;21295;-76
2022/10/03 11:39:04;;;;;;;8.45;2.35;;;;;;;13.42;80.56;97956.41;1669090;84;21567;-76
2022/10/03 11:41:48;;;;;;;5.80;1.80;;;;;;;13.58;78.74;97954.86;1669193;86;20869;-75
2022/10/03 11:44:42;;;;;;;7.78;2.00;;;;;;;13.72;78.74;97948.95;1668911;86;20983;-74
2022/10/03 11:47:26;;;;;;;6.33;2.22;;;;;;;13.80;77.29;97948.45;1668469;84;20909;-74
2022/10/03 11:50:01;;;;;;;6.12;1.85;;;;;;;13.79;76.33;97949.03;1669910;86;21125;-75
2022/10/03 11:52:37;;;;;;;14.73;2.87;;;;;;;13.73;76.53;97958.81;1668566;84;20945;-73
2022/10/03 11:55:41;;;;;;;5.62;1.62;;;;;;;13.62;75.60;97952.94;1668815;85;21448;-72
2022/10/03 11:58:40;;;;;;;5.67;1.85;;;;;;;13.53;76.29;97951.26;1668894;86;21479;-74
2022/10/03 12:01:24;;;;;;;4.15;1.15;;;;;;;13.61;75.50;97952.15;1655877;85;20952;-75
2022/10/03 12:04:12;;;;;;;4.78;1.85;;;;;;;14.03;74.49;97949.09;1668738;84;21630;-76
2022/10/03 12:09:38;;;;;;;3.95;1.55;;;;;;;14.33;71.54;97951.78;1668984;86;20952;-76
2022/10/03 12:12:14;;;;;;;;;;;;;;;14.60;71.27;97951.66;1671131;85;21514;-74
2022/10/03 12:14:45;;;;;;;4.03;2.30;;;;;;;14.97;70.13;97948.22;1677292;85;20446;-74
2022/10/03 12:17:22;;;;;;;;;;;;;;;15.23;69.12;97950.55;1672157;86;21800;-74
2022/10/03 12:20:22;;;;;;;9.35;2.95;;;;;;;15.26;69.71;97948.41;1666851;85;20108;-73
2022/10/03 12:23:02;;;;;;;9.03;2.75;;;;;;;15.05;67.00;97944.31;1669602;86;20945;-74
2022/10/03 12:25:35;;;;;;;5.42;1.32;;;;;;;14.72;67.66;97929.27;1668956;86;20969;-74
2022/10/03 12:28:23;;;;;;;7.12;1.60;;;;;;;14.34;66.68;97941.54;1669405;86;20861;-74
2022/10/03 12:30:59;;;;;;;7.40;1.60;;;;;;;13.95;68.14;97957.08;1669241;84;21212;-72
2022/10/03 12:33:46;;;;;;;4.65;1.40;;;;;;;13.62;70.20;97970.28;1669475;86;21522;-73
2022/10/03 12:36:57;;;;;;;5.08;1.85;;;;;;;13.34;73.69;97969.30;1669342;86;20889;-71
2022/10/03 12:40:00;;;;;;;8.35;1.50;;;;;;;13.10;76.96;97966.37;1669552;86;21016;-71
2022/10/03 12:42:36;;;;;;;6.05;1.40;;;;;;;12.96;77.52;97961.23;1669303;85;20940;-72
2022/10/03 12:45:23;;;;;;;8.58;1.55;;;;;;;13.00;78.29;97955.20;1664061;86;21814;-74
2022/10/03 12:48:27;;;;;;;3.92;1.50;;;;;;;13.33;78.10;97954.51;1642241;87;21008;-74
2022/10/03 12:51:20;;;;;;;4.42;1.20;;;;;;;13.71;77.50;97948.73;1642092;87;20929;-75
2022/10/03 12:54:09;;;;;;;4.17;1.22;;;;;;;13.85;74.44;97953.63;1642242;87;20959;-74
2022/10/03 12:57:20;;;;;;;4.60;1.25;;;;;;;13.77;73.72;97955.51;1642318;87;21060;-74
2022/10/03 13:00:01;;;;;;;3.62;1.05;;;;;;;13.64;73.14;97945.09;1642181;87;21592;-73
2022/10/03 13:02:37;;;;;;;4.92;1.40;;;;;;;13.41;70.59;97954.23;1642239;87;21473;-73
2022/10/03 13:05:54;;;;;;;4.50;1.22;;;;;;;13.29;71.35;97943.44;1642167;87;20989;-71
2022/10/03 13:08:50;;;;;;;6.50;1.70;;;;;;;13.26;71.35;97949.72;1642286;87;21019;-74
2022/10/03 13:11:55;;;;;;;6.03;1.15;;;;;;;13.26;71.21;97953.06;1642375;87;21534;-72
2022/10/03 13:14:42;;;;;;;6.30;1.22;;;;;;;13.31;71.49;97959.60;1642130;87;21128;-73
2022/10/03 13:17:35;;;;;;;5.30;1.17;;;;;;;13.25;71.39;97954.23;1643600;87;20948;-68
2022/10/03 13:20:15;;;;;;;5.65;0.90;;;;;;;13.13;71.57;97951.86;1648741;86;20888;-67
2022/10/03 13:23:29;;;;;;;0.90;0.70;;;;;;;13.03;71.94;97951.70;1645611;87;20904;-68
2022/10/03 13:26:21;;;;;;;2.83;0.90;;;;;;;12.94;72.51;97956.09;1648669;86;21023;-70
2022/10/03 13:29:16;;;;;;;3.83;1.05;;;;;;;12.92;74.50;97954.87;1648646;85;20992;-69
2022/10/03 13:32:01;;;;;;;4.47;0.90;;;;;;;12.90;75.17;97949.15;1648220;85;20901;-70
2022/10/03 13:34:33;;;;;;;5.55;1.45;;;;;;;12.90;76.91;97951.11;1648429;87;20991;-70
2022/10/03 13:37:12;;;;;;;7.47;1.10;;;;;;;12.94;75.69;97952.55;1648843;85;21496;-70
2022/10/03 13:39:52;;;;;;;3.70;1.22;;;;;;;12.93;75.61;97953.13;1647412;87;20988;-71
2022/10/03 13:42:52;;;;;;;2.80;1.17;;;;;;;12.89;75.30;97951.69;1648558;87;21572;-71
2022/10/03 13:45:16;;;;;;;9.85;1.35;;;;;;;12.82;75.79;97946.06;1662968;85;21558;-71
2022/10/03 13:47:56;;;;;;;1.85;1.25;;;;;;;12.77;75.60;97938.70;1675740;85;21495;-72
2022/10/03 13:50:38;;;;;;;4.15;1.10;;;;;;;12.77;75.47;97945.00;1674169;85;21487;-73